Time,TemperatureF,DewpointF,PressureIn,WindDirection,WindDirectionDegrees,WindSpeedMPH,WindSpeedGustMPH,Humidity,HourlyPrecipIn,Conditions,Clouds,dailyrainin,SoftwareType,DateUTC
2013-05-02 00:06:00,52.0,41.0,30.45,ENE,71,0.0,5.0,66,0.00,,,0.00,weatherlink.com 1.10,2013-05-02 04:06:00,
2013-05-02 00:21:00,50.1,41.0,30.45,ENE,71,0.0,0.0,70,0.00,,,0.00,weatherlink.com 1.10,2013-05-02 04:21:00,
2013-05-02 00:36:00,48.2,41.0,30.45,ENE,71,0.0,0.0,75,0.00,,,0.00,weatherlink.com 1.10,2013-05-02 04:36:00,
2013-05-02 00:51:00,48.2,41.0,30.45,ENE,71,0.0,0.0,75,0.00,,,0.00,weatherlink.com 1.10,2013-05-02 04:51:00,
2013-05-02 01:06:00,49.6,41.0,30.44,ENE,57,0.0,2.0,72,0.00,,,0.00,weatherlink.com 1.10,2013-05-02 05:06:00,
2013-05-02 01:21:00,49.5,41.0,30.44,ENE,57,0.0,1.0,72,0.00,,,0.00,weatherlink.com 1.10,2013-05-02 05:21:00,
2013-05-02 01:36:00,49.0,41.0,30.43,ENE,57,0.0,0.0,73,0.00,,,0.00,weatherlink.com 1.10,2013-05-02 05:36:00,
2013-05-02 01:51:00,48.8,41.0,30.44,ENE,57,0.0,2.0,74,0.00,,,0.00,weatherlink.com 1.10,2013-05-02 05:51:00,
2013-05-02 02:06:00,48.7,41.0,30.43,ENE,57,0.0,1.0,75,0.00,,,0.00,weatherlink.com 1.10,2013-05-02 06:06:00,
2013-05-02 02:21:00,47.5,41.0,30.43,ENE,57,0.0,0.0,78,0.00,,,0.00,weatherlink.com 1.10,2013-05-02 06:21:00,
2013-05-02 02:36:00,47.3,41.0,30.44,ENE,57,0.0,0.0,78,0.00,,,0.00,weatherlink.com 1.10,2013-05-02 06:36:00,
2013-05-02 02:51:00,46.6,40.0,30.43,ENE,57,0.0,0.0,79,0.00,,,0.00,weatherlink.com 1.10,2013-05-02 06:51:00,
2013-05-02 03:06:00,45.8,40.0,30.43,ENE,57,0.0,0.0,81,0.00,,,0.00,weatherlink.com 1.10,2013-05-02 07:06:00,
2013-05-02 03:21:00,45.1,40.0,30.43,ENE,57,0.0,0.0,83,0.00,,,0.00,weatherlink.com 1.10,2013-05-02 07:21:00,
2013-05-02 03:36:00,45.2,41.0,30.43,ENE,57,0.0,0.0,84,0.00,,,0.00,weatherlink.com 1.10,2013-05-02 07:36:00,
2013-05-02 03:51:00,44.7,40.0,30.43,ENE,57,0.0,0.0,84,0.00,,,0.00,weatherlink.com 1.10,2013-05-02 07:51:00,
2013-05-02 04:06:00,44.7,40.0,30.43,ENE,57,0.0,0.0,84,0.00,,,0.00,weatherlink.com 1.10,2013-05-02 08:06:00,
2013-05-02 04:21:00,45.3,40.0,30.43,ENE,57,0.0,0.0,82,0.00,,,0.00,weatherlink.com 1.10,2013-05-02 08:21:00,
2013-05-02 04:36:00,44.7,40.0,30.43,ENE,57,0.0,0.0,84,0.00,,,0.00,weatherlink.com 1.10,2013-05-02 08:36:00,
2013-05-02 04:51:00,44.7,40.0,30.43,ENE,57,0.0,1.0,84,0.00,,,0.00,weatherlink.com 1.10,2013-05-02 08:51:00,
2013-05-02 05:06:00,44.2,40.0,30.43,ENE,57,0.0,0.0,85,0.00,,,0.00,weatherlink.com 1.10,2013-05-02 09:06:00,
2013-05-02 05:21:00,44.2,40.0,30.43,ENE,57,0.0,0.0,86,0.00,,,0.00,weatherlink.com 1.10,2013-05-02 09:21:00,
2013-05-02 05:36:00,43.6,40.0,30.43,ENE,57,0.0,0.0,87,0.00,,,0.00,weatherlink.com 1.10,2013-05-02 09:36:00,
2013-05-02 05:51:00,43.3,40.0,30.44,ENE,57,0.0,0.0,87,0.00,,,0.00,weatherlink.com 1.10,2013-05-02 09:51:00,
2013-05-02 06:06:00,43.6,40.0,30.44,ENE,57,0.0,0.0,88,0.00,,,0.00,weatherlink.com 1.10,2013-05-02 10:06:00,
2013-05-02 06:21:00,43.2,40.0,30.45,ENE,57,0.0,0.0,88,0.00,,,0.00,weatherlink.com 1.10,2013-05-02 10:21:00,
2013-05-02 06:36:00,43.2,40.0,30.45,ENE,57,0.0,0.0,89,0.00,,,0.00,weatherlink.com 1.10,2013-05-02 10:36:00,
2013-05-02 06:51:00,45.3,41.0,30.45,ENE,57,0.0,0.0,85,0.00,,,0.00,weatherlink.com 1.10,2013-05-02 10:51:00,
2013-05-02 07:06:00,47.0,42.0,30.45,ENE,57,0.0,1.0,82,0.00,,,0.00,weatherlink.com 1.10,2013-05-02 11:06:00,
2013-05-02 07:22:00,47.9,42.0,30.45,ENE,74,1.0,3.0,81,0.00,,,0.00,weatherlink.com 1.10,2013-05-02 11:22:00,
2013-05-02 07:37:00,48.9,43.0,30.46,East,91,1.0,3.0,79,0.00,,,0.00,weatherlink.com 1.10,2013-05-02 11:37:00,
2013-05-02 07:52:00,49.9,43.0,30.46,NE,53,3.0,4.0,77,0.00,,,0.00,weatherlink.com 1.10,2013-05-02 11:52:00,
2013-05-02 08:07:00,50.8,43.0,30.46,East,89,3.0,4.0,74,0.00,,,0.00,weatherlink.com 1.10,2013-05-02 12:07:00,
2013-05-02 08:22:00,51.1,43.0,30.47,ENE,70,3.0,5.0,73,0.00,,,0.00,weatherlink.com 1.10,2013-05-02 12:22:00,
2013-05-02 08:37:00,51.9,42.0,30.47,East,92,3.0,5.0,70,0.00,,,0.00,weatherlink.com 1.10,2013-05-02 12:37:00,
2013-05-02 08:52:00,53.2,44.0,30.46,East,82,0.0,6.0,70,0.00,,,0.00,weatherlink.com 1.10,2013-05-02 12:52:00,
2013-05-02 09:07:00,54.3,43.0,30.46,East,89,3.0,4.0,66,0.00,,,0.00,weatherlink.com 1.10,2013-05-02 13:07:00,
2013-05-02 09:22:00,55.4,44.0,30.46,East,94,0.0,4.0,65,0.00,,,0.00,weatherlink.com 1.10,2013-05-02 13:22:00,
2013-05-02 09:37:00,55.8,43.0,30.47,South,176,0.0,4.0,62,0.00,,,0.00,weatherlink.com 1.10,2013-05-02 13:37:00,
2013-05-02 09:52:00,56.7,42.0,30.47,NNE,19,0.0,7.0,59,0.00,,,0.00,weatherlink.com 1.10,2013-05-02 13:52:00,
2013-05-02 10:07:00,58.2,43.0,30.47,SE,145,0.0,3.0,57,0.00,,,0.00,weatherlink.com 1.10,2013-05-02 14:07:00,
2013-05-02 10:22:00,57.8,42.0,30.47,South,180,0.0,3.0,57,0.00,,,0.00,weatherlink.com 1.10,2013-05-02 14:22:00,
2013-05-02 10:37:00,59.0,42.0,30.47,NE,46,3.0,5.0,53,0.00,,,0.00,weatherlink.com 1.10,2013-05-02 14:37:00,
2013-05-02 10:53:00,60.3,43.0,30.47,ENE,62,4.0,4.0,54,0.00,,,0.00,weatherlink.com 1.10,2013-05-02 14:53:00,
2013-05-02 11:08:00,59.3,44.0,30.47,ENE,69,2.0,4.0,57,0.00,,,0.00,weatherlink.com 1.10,2013-05-02 15:08:00,
2013-05-02 11:38:00,61.9,46.0,30.47,ENE,61,0.0,3.0,56,0.00,,,0.00,weatherlink.com 1.10,2013-05-02 15:38:00,
2013-05-02 11:53:00,62.2,43.0,30.46,ENE,73,2.0,4.0,50,0.00,,,0.00,weatherlink.com 1.10,2013-05-02 15:53:00,
2013-05-02 12:08:00,62.2,43.0,30.45,ESE,116,0.0,5.0,49,0.00,,,0.00,weatherlink.com 1.10,2013-05-02 16:08:00,
2013-05-02 12:23:00,63.1,44.0,30.45,ENE,57,4.0,8.0,51,0.00,,,0.00,weatherlink.com 1.10,2013-05-02 16:23:00,
2013-05-02 12:38:00,64.1,45.0,30.44,East,92,3.0,6.0,50,0.00,,,0.00,weatherlink.com 1.10,2013-05-02 16:38:00,
2013-05-02 12:53:00,66.0,45.0,30.44,East,86,0.0,6.0,47,0.00,,,0.00,weatherlink.com 1.10,2013-05-02 16:53:00,
2013-05-02 13:08:00,66.8,44.0,30.43,SSE,159,0.0,6.0,44,0.00,,,0.00,weatherlink.com 1.10,2013-05-02 17:08:00,
2013-05-02 13:23:00,67.4,45.0,30.43,WSW,238,0.0,2.0,45,0.00,,,0.00,weatherlink.com 1.10,2013-05-02 17:23:00,
2013-05-02 13:38:00,67.3,46.0,30.42,SE,138,0.0,7.0,46,0.00,,,0.00,weatherlink.com 1.10,2013-05-02 17:38:00,
2013-05-02 13:53:00,70.1,45.0,30.43,East,86,0.0,5.0,41,0.00,,,0.00,weatherlink.com 1.10,2013-05-02 17:53:00,
2013-05-02 14:08:00,69.5,47.0,30.42,South,178,1.0,6.0,44,0.00,,,0.00,weatherlink.com 1.10,2013-05-02 18:08:00,
2013-05-02 14:23:00,70.2,47.0,30.42,ESE,123,0.0,7.0,43,0.00,,,0.00,weatherlink.com 1.10,2013-05-02 18:23:00,
2013-05-02 14:38:00,68.4,44.0,30.41,ESE,103,0.0,7.0,41,0.00,,,0.00,weatherlink.com 1.10,2013-05-02 18:38:00,
2013-05-02 14:53:00,71.6,45.0,30.41,ESE,113,1.0,5.0,39,0.00,,,0.00,weatherlink.com 1.10,2013-05-02 18:53:00,
2013-05-02 15:08:00,71.5,44.0,30.41,East,81,2.0,9.0,37,0.00,,,0.00,weatherlink.com 1.10,2013-05-02 19:08:00,
2013-05-02 15:23:00,71.5,44.0,30.40,ENE,77,3.0,5.0,38,0.00,,,0.00,weatherlink.com 1.10,2013-05-02 19:23:00,
2013-05-02 15:38:00,72.6,46.0,30.39,WSW,255,0.0,7.0,39,0.00,,,0.00,weatherlink.com 1.10,2013-05-02 19:38:00,
2013-05-02 15:53:00,73.5,45.0,30.39,ESE,111,0.0,7.0,36,0.00,,,0.00,weatherlink.com 1.10,2013-05-02 19:53:00,
2013-05-02 16:08:00,72.9,45.0,30.38,West,273,1.0,6.0,37,0.00,,,0.00,weatherlink.com 1.10,2013-05-02 20:08:00,
2013-05-02 16:23:00,73.7,45.0,30.38,NNE,31,3.0,6.0,36,0.00,,,0.00,weatherlink.com 1.10,2013-05-02 20:23:00,
2013-05-02 16:38:00,72.3,43.0,30.38,NE,51,0.0,8.0,35,0.00,,,0.00,weatherlink.com 1.10,2013-05-02 20:38:00,
2013-05-02 16:53:00,73.6,44.0,30.37,WSW,246,0.0,5.0,35,0.00,,,0.00,weatherlink.com 1.10,2013-05-02 20:53:00,
2013-05-02 17:08:00,74.5,44.0,30.37,WNW,291,1.0,6.0,34,0.00,,,0.00,weatherlink.com 1.10,2013-05-02 21:08:00,
2013-05-02 17:24:00,74.1,44.0,30.37,SSW,192,1.0,8.0,34,0.00,,,0.00,weatherlink.com 1.10,2013-05-02 21:24:00,
2013-05-02 17:39:00,73.2,44.0,30.36,WNW,289,1.0,4.0,35,0.00,,,0.00,weatherlink.com 1.10,2013-05-02 21:39:00,
2013-05-02 17:54:00,72.0,43.0,30.36,SW,219,1.0,8.0,35,0.00,,,0.00,weatherlink.com 1.10,2013-05-02 21:54:00,
2013-05-02 18:09:00,72.1,43.0,30.36,SSW,192,1.0,3.0,35,0.00,,,0.00,weatherlink.com 1.10,2013-05-02 22:09:00,
2013-05-02 18:52:00,70.7,42.0,30.35,SSW,200,0.0,3.0,36,0.00,,,0.00,weatherlink.com 1.10,2013-05-02 22:52:00,
2013-05-02 19:09:00,69.6,43.0,30.35,South,183,0.0,4.0,38,0.00,,,0.00,weatherlink.com 1.10,2013-05-02 23:09:00,
2013-05-02 19:24:00,68.0,41.0,30.35,West,278,0.0,3.0,38,0.00,,,0.00,weatherlink.com 1.10,2013-05-02 23:24:00,
2013-05-02 19:39:00,66.1,42.0,30.35,South,177,0.0,1.0,41,0.00,,,0.00,weatherlink.com 1.10,2013-05-02 23:39:00,
2013-05-02 19:54:00,64.5,43.0,30.34,South,176,0.0,1.0,45,0.00,,,0.00,weatherlink.com 1.10,2013-05-02 23:54:00,
2013-05-02 20:09:00,61.8,43.0,30.34,South,176,0.0,0.0,51,0.00,,,0.00,weatherlink.com 1.10,2013-05-03 00:09:00,
2013-05-02 20:24:00,60.3,43.0,30.34,South,176,0.0,0.0,53,0.00,,,0.00,weatherlink.com 1.10,2013-05-03 00:24:00,
2013-05-02 20:39:00,59.5,43.0,30.34,South,176,0.0,0.0,55,0.00,,,0.00,weatherlink.com 1.10,2013-05-03 00:39:00,
2013-05-02 20:54:00,59.3,43.0,30.34,South,176,0.0,0.0,55,0.00,,,0.00,weatherlink.com 1.10,2013-05-03 00:54:00,
2013-05-02 21:09:00,58.9,43.0,30.34,South,176,0.0,0.0,56,0.00,,,0.00,weatherlink.com 1.10,2013-05-03 01:09:00,
2013-05-02 21:24:00,58.4,43.0,30.34,South,176,0.0,0.0,57,0.00,,,0.00,weatherlink.com 1.10,2013-05-03 01:24:00,
2013-05-02 21:39:00,58.5,43.0,30.34,South,176,0.0,0.0,56,0.00,,,0.00,weatherlink.com 1.10,2013-05-03 01:39:00,
2013-05-02 21:54:00,58.1,43.0,30.34,South,176,0.0,0.0,57,0.00,,,0.00,weatherlink.com 1.10,2013-05-03 01:54:00,
2013-05-02 22:09:00,57.5,44.0,30.34,South,176,0.0,0.0,60,0.00,,,0.00,weatherlink.com 1.10,2013-05-03 02:09:00,
2013-05-02 22:24:00,56.6,43.0,30.34,South,176,0.0,0.0,61,0.00,,,0.00,weatherlink.com 1.10,2013-05-03 02:24:00,
2013-05-02 22:39:00,56.2,43.0,30.33,South,176,0.0,0.0,62,0.00,,,0.00,weatherlink.com 1.10,2013-05-03 02:39:00,
2013-05-02 22:54:00,55.3,43.0,30.34,South,176,0.0,0.0,63,0.00,,,0.00,weatherlink.com 1.10,2013-05-03 02:54:00,
2013-05-02 23:09:00,55.2,44.0,30.34,South,176,0.0,0.0,65,0.00,,,0.00,weatherlink.com 1.10,2013-05-03 03:09:00,
2013-05-02 23:24:00,55.3,45.0,30.34,South,176,0.0,0.0,68,0.00,,,0.00,weatherlink.com 1.10,2013-05-03 03:24:00,
2013-05-02 23:39:00,54.2,45.0,30.34,South,176,0.0,0.0,71,0.00,,,0.00,weatherlink.com 1.10,2013-05-03 03:39:00,
2013-05-02 23:54:00,53.6,45.0,30.34,South,176,0.0,0.0,72,0.00,,,0.00,weatherlink.com 1.10,2013-05-03 03:54:00,